sensor_id;sensor_type;location;lat;lon;timestamp;pressure;altitude;pressure_sealevel;temperature;humidity
17635;BME280;8936;49.010;12.120;2023-02-26T00:00:08;97164.75;;;3.01;100.00
17635;BME280;8936;49.010;12.120;2023-02-26T00:02:37;97153.00;;;3.20;100.00
17635;BME280;8936;49.010;12.120;2023-02-26T00:05:06;97161.94;;;2.22;100.00
17635;BME280;8936;49.010;12.120;2023-02-26T00:07:32;97168.47;;;2.42;100.00
17635;BME280;8936;49.010;12.120;2023-02-26T00:09:59;97157.06;;;3.68;100.00
17635;BME280;8936;49.010;12.120;2023-02-26T00:12:26;97163.41;;;3.84;100.00
17635;BME280;8936;49.010;12.120;2023-02-26T00:14:53;97160.31;;;3.58;100.00
17635;BME280;8936;49.010;12.120;2023-02-26T00:17:25;97165.75;;;3.12;100.00
17635;BME280;8936;49.010;12.120;2023-02-26T00:19:56;97162.00;;;2.96;100.00
17635;BME280;8936;49.010;12.120;2023-02-26T00:22:24;97167.75;;;3.90;100.00
17635;BME280;8936;49.010;12.120;2023-02-26T00:24:51;97168.09;;;3.65;100.00
17635;BME280;8936;49.010;12.120;2023-02-26T00:27:17;97180.41;;;4.04;100.00
17635;BME280;8936;49.010;12.120;2023-02-26T00:29:43;97176.72;;;4.22;100.00
17635;BME280;8936;49.010;12.120;2023-02-26T00:32:10;97186.88;;;4.13;100.00
17635;BME280;8936;49.010;12.120;2023-02-26T00:34:37;97175.84;;;3.71;100.00
17635;BME280;8936;49.010;12.120;2023-02-26T00:37:07;97185.31;;;3.67;100.00
17635;BME280;8936;49.010;12.120;2023-02-26T00:39:40;97184.81;;;3.99;100.00
17635;BME280;8936;49.010;12.120;2023-02-26T00:42:09;97192.88;;;4.59;100.00
17635;BME280;8936;49.010;12.120;2023-02-26T00:44:36;97184.47;;;4.62;100.00
17635;BME280;8936;49.010;12.120;2023-02-26T00:47:04;97195.34;;;4.82;100.00
17635;BME280;8936;49.010;12.120;2023-02-26T00:49:38;97196.56;;;5.34;100.00
17635;BME280;8936;49.010;12.120;2023-02-26T00:52:10;97197.00;;;5.75;100.00
17635;BME280;8936;49.010;12.120;2023-02-26T00:54:39;97198.00;;;5.69;100.00
17635;BME280;8936;49.010;12.120;2023-02-26T00:57:05;97196.56;;;5.83;100.00
17635;BME280;8936;49.010;12.120;2023-02-26T00:59:31;97197.56;;;5.77;100.00
17635;BME280;8936;49.010;12.120;2023-02-26T01:01:58;97190.44;;;5.82;100.00
17635;BME280;8936;49.010;12.120;2023-02-26T01:04:24;97192.22;;;5.98;100.00
17635;BME280;8936;49.010;12.120;2023-02-26T01:06:51;97186.22;;;6.08;100.00
17635;BME280;8936;49.010;12.120;2023-02-26T01:09:20;97194.59;;;5.73;100.00
17635;BME280;8936;49.010;12.120;2023-02-26T01:11:49;97195.31;;;5.20;100.00
17635;BME280;8936;49.010;12.120;2023-02-26T01:14:16;97197.06;;;4.55;100.00
17635;BME280;8936;49.010;12.120;2023-02-26T01:16:43;97200.69;;;5.25;100.00
17635;BME280;8936;49.010;12.120;2023-02-26T01:19:15;97195.97;;;5.11;100.00
17635;BME280;8936;49.010;12.120;2023-02-26T01:21:43;97195.56;;;5.19;100.00
17635;BME280;8936;49.010;12.120;2023-02-26T01:24:12;97193.56;;;4.87;100.00
17635;BME280;8936;49.010;12.120;2023-02-26T01:26:40;97198.88;;;5.31;100.00
17635;BME280;8936;49.010;12.120;2023-02-26T01:29:09;97198.06;;;5.09;100.00
17635;BME280;8936;49.010;12.120;2023-02-26T01:31:37;97196.69;;;5.44;100.00
17635;BME280;8936;49.010;12.120;2023-02-26T01:34:07;97194.19;;;5.60;100.00
17635;BME280;8936;49.010;12.120;2023-02-26T01:36:36;97196.19;;;5.74;100.00
17635;BME280;8936;49.010;12.120;2023-02-26T01:39:07;97190.63;;;5.06;100.00
17635;BME280;8936;49.010;12.120;2023-02-26T01:41:38;97199.09;;;4.86;100.00
17635;BME280;8936;49.010;12.120;2023-02-26T01:44:11;97193.22;;;5.22;100.00
17635;BME280;8936;49.010;12.120;2023-02-26T01:46:44;97193.81;;;5.08;100.00
17635;BME280;8936;49.010;12.120;2023-02-26T01:49:16;97194.28;;;5.21;100.00
17635;BME280;8936;49.010;12.120;2023-02-26T01:51:45;97196.16;;;4.82;100.00
17635;BME280;8936;49.010;12.120;2023-02-26T01:54:12;97194.75;;;4.97;100.00
17635;BME280;8936;49.010;12.120;2023-02-26T01:56:38;97202.25;;;4.66;100.00
17635;BME280;8936;49.010;12.120;2023-02-26T01:59:06;97212.19;;;4.43;100.00
17635;BME280;8936;49.010;12.120;2023-02-26T02:01:36;97219.31;;;4.59;100.00
17635;BME280;8936;49.010;12.120;2023-02-26T02:04:04;97215.16;;;4.13;100.00
17635;BME280;8936;49.010;12.120;2023-02-26T02:06:31;97216.59;;;4.37;100.00
17635;BME280;8936;49.010;12.120;2023-02-26T02:08:57;97219.00;;;4.72;100.00
17635;BME280;8936;49.010;12.120;2023-02-26T02:11:24;97215.63;;;4.76;100.00
17635;BME280;8936;49.010;12.120;2023-02-26T02:13:54;97218.31;;;4.98;100.00
17635;BME280;8936;49.010;12.120;2023-02-26T02:16:25;97231.19;;;4.73;100.00
17635;BME280;8936;49.010;12.120;2023-02-26T02:18:55;97228.75;;;4.88;100.00
17635;BME280;8936;49.010;12.120;2023-02-26T02:21:40;97230.38;;;4.56;100.00
17635;BME280;8936;49.010;12.120;2023-02-26T02:24:11;97234.84;;;4.05;100.00
17635;BME280;8936;49.010;12.120;2023-02-26T02:26:49;97226.47;;;3.80;100.00
17635;BME280;8936;49.010;12.120;2023-02-26T02:29:31;97232.53;;;3.12;100.00
17635;BME280;8936;49.010;12.120;2023-02-26T02:32:05;97232.78;;;3.79;100.00
17635;BME280;8936;49.010;12.120;2023-02-26T02:34:35;97230.47;;;2.80;100.00
17635;BME280;8936;49.010;12.120;2023-02-26T02:37:04;97238.50;;;2.73;100.00
17635;BME280;8936;49.010;12.120;2023-02-26T02:39:32;97242.28;;;2.77;100.00
17635;BME280;8936;49.010;12.120;2023-02-26T02:42:02;97233.78;;;3.61;100.00
17635;BME280;8936;49.010;12.120;2023-02-26T02:44:31;97235.81;;;3.31;100.00
17635;BME280;8936;49.010;12.120;2023-02-26T02:46:59;97241.91;;;3.88;100.00
17635;BME280;8936;49.010;12.120;2023-02-26T02:49:28;97236.25;;;3.28;100.00
17635;BME280;8936;49.010;12.120;2023-02-26T02:51:58;97244.00;;;3.06;100.00
17635;BME280;8936;49.010;12.120;2023-02-26T02:54:28;97250.53;;;3.15;100.00
17635;BME280;8936;49.010;12.120;2023-02-26T02:56:57;97248.88;;;3.26;100.00
17635;BME280;8936;49.010;12.120;2023-02-26T02:59:27;97249.84;;;3.08;100.00
17635;BME280;8936;49.010;12.120;2023-02-26T03:01:56;97255.88;;;2.39;100.00
17635;BME280;8936;49.010;12.120;2023-02-26T03:04:25;97254.56;;;1.77;100.00
17635;BME280;8936;49.010;12.120;2023-02-26T03:06:52;97262.66;;;1.28;100.00
17635;BME280;8936;49.010;12.120;2023-02-26T03:09:19;97261.84;;;2.35;100.00
17635;BME280;8936;49.010;12.120;2023-02-26T03:11:45;97268.66;;;2.12;100.00
17635;BME280;8936;49.010;12.120;2023-02-26T03:14:11;97263.53;;;1.88;100.00
17635;BME280;8936;49.010;12.120;2023-02-26T03:16:47;97267.38;;;2.68;100.00
17635;BME280;8936;49.010;12.120;2023-02-26T03:19:17;97269.44;;;3.01;100.00
17635;BME280;8936;49.010;12.120;2023-02-26T03:21:47;97274.78;;;2.48;100.00
17635;BME280;8936;49.010;12.120;2023-02-26T03:24:17;97284.00;;;2.68;100.00
17635;BME280;8936;49.010;12.120;2023-02-26T03:26:45;97274.63;;;2.84;100.00
17635;BME280;8936;49.010;12.120;2023-02-26T03:29:14;97278.56;;;3.85;100.00
17635;BME280;8936;49.010;12.120;2023-02-26T03:31:44;97283.50;;;3.41;100.00
17635;BME280;8936;49.010;12.120;2023-02-26T03:34:16;97284.63;;;3.57;100.00
17635;BME280;8936;49.010;12.120;2023-02-26T03:36:45;97293.13;;;3.87;100.00
17635;BME280;8936;49.010;12.120;2023-02-26T03:39:13;97293.00;;;3.54;100.00
17635;BME280;8936;49.010;12.120;2023-02-26T03:41:43;97302.41;;;4.18;100.00
17635;BME280;8936;49.010;12.120;2023-02-26T03:44:13;97297.78;;;3.80;100.00
17635;BME280;8936;49.010;12.120;2023-02-26T03:46:42;97313.66;;;3.57;100.00
17635;BME280;8936;49.010;12.120;2023-02-26T03:49:11;97319.72;;;3.69;100.00
17635;BME280;8936;49.010;12.120;2023-02-26T03:51:40;97325.72;;;4.21;100.00
17635;BME280;8936;49.010;12.120;2023-02-26T03:54:09;97313.38;;;4.10;100.00
17635;BME280;8936;49.010;12.120;2023-02-26T03:56:39;97325.69;;;4.04;100.00
17635;BME280;8936;49.010;12.120;2023-02-26T03:59:08;97333.84;;;4.14;100.00
17635;BME280;8936;49.010;12.120;2023-02-26T04:01:35;97328.91;;;4.34;100.00
17635;BME280;8936;49.010;12.120;2023-02-26T04:04:06;97320.75;;;4.08;100.00
17635;BME280;8936;49.010;12.120;2023-02-26T04:06:34;97331.56;;;3.55;100.00
17635;BME280;8936;49.010;12.120;2023-02-26T04:09:01;97331.31;;;3.56;100.00
17635;BME280;8936;49.010;12.120;2023-02-26T04:11:28;97337.56;;;3.90;100.00
17635;BME280;8936;49.010;12.120;2023-02-26T04:13:54;97332.88;;;4.49;100.00
17635;BME280;8936;49.010;12.120;2023-02-26T04:16:22;97337.38;;;4.36;97.47
17635;BME280;8936;49.010;12.120;2023-02-26T04:18:48;97344.19;;;4.61;99.51
17635;BME280;8936;49.010;12.120;2023-02-26T04:21:16;97337.56;;;4.47;99.40
17635;BME280;8936;49.010;12.120;2023-02-26T04:23:43;97338.13;;;4.32;97.36
17635;BME280;8936;49.010;12.120;2023-02-26T04:26:10;97340.47;;;4.62;100.00
17635;BME280;8936;49.010;12.120;2023-02-26T04:28:37;97346.75;;;4.27;97.65
17635;BME280;8936;49.010;12.120;2023-02-26T04:31:03;97347.69;;;4.21;100.00
17635;BME280;8936;49.010;12.120;2023-02-26T04:33:31;97358.09;;;4.56;100.00
17635;BME280;8936;49.010;12.120;2023-02-26T04:35:59;97356.09;;;3.78;100.00
17635;BME280;8936;49.010;12.120;2023-02-26T04:38:26;97352.59;;;4.01;100.00
17635;BME280;8936;49.010;12.120;2023-02-26T04:40:52;97365.84;;;3.78;100.00
17635;BME280;8936;49.010;12.120;2023-02-26T04:43:19;97370.59;;;3.64;100.00
17635;BME280;8936;49.010;12.120;2023-02-26T04:45:45;97375.66;;;2.55;100.00
17635;BME280;8936;49.010;12.120;2023-02-26T04:48:11;97376.19;;;2.98;100.00
17635;BME280;8936;49.010;12.120;2023-02-26T04:50:39;97370.84;;;3.40;100.00
17635;BME280;8936;49.010;12.120;2023-02-26T04:53:05;97376.56;;;3.48;100.00
17635;BME280;8936;49.010;12.120;2023-02-26T04:55:32;97378.31;;;2.66;100.00
17635;BME280;8936;49.010;12.120;2023-02-26T04:57:59;97392.44;;;2.12;100.00
17635;BME280;8936;49.010;12.120;2023-02-26T05:00:25;97386.97;;;1.96;100.00
17635;BME280;8936;49.010;12.120;2023-02-26T05:02:51;97377.38;;;3.02;100.00
17635;BME280;8936;49.010;12.120;2023-02-26T05:05:18;97383.00;;;2.53;100.00
17635;BME280;8936;49.010;12.120;2023-02-26T05:07:45;97397.47;;;2.14;100.00
17635;BME280;8936;49.010;12.120;2023-02-26T05:10:12;97384.81;;;2.94;100.00
17635;BME280;8936;49.010;12.120;2023-02-26T05:12:38;97389.94;;;2.89;100.00
17635;BME280;8936;49.010;12.120;2023-02-26T05:15:05;97403.84;;;2.25;100.00
17635;BME280;8936;49.010;12.120;2023-02-26T05:17:31;97392.78;;;2.76;100.00
17635;BME280;8936;49.010;12.120;2023-02-26T05:19:58;97399.09;;;2.75;100.00
17635;BME280;8936;49.010;12.120;2023-02-26T05:22:24;97394.50;;;3.46;100.00
17635;BME280;8936;49.010;12.120;2023-02-26T05:24:52;97399.19;;;3.09;100.00
17635;BME280;8936;49.010;12.120;2023-02-26T05:27:18;97398.38;;;2.67;100.00
17635;BME280;8936;49.010;12.120;2023-02-26T05:29:44;97414.34;;;2.43;100.00
17635;BME280;8936;49.010;12.120;2023-02-26T05:32:11;97409.94;;;2.96;100.00
17635;BME280;8936;49.010;12.120;2023-02-26T05:34:37;97399.84;;;2.63;100.00
17635;BME280;8936;49.010;12.120;2023-02-26T05:37:03;97401.47;;;3.17;100.00
17635;BME280;8936;49.010;12.120;2023-02-26T05:39:30;97410.78;;;3.43;100.00
17635;BME280;8936;49.010;12.120;2023-02-26T05:41:58;97413.88;;;2.76;100.00
17635;BME280;8936;49.010;12.120;2023-02-26T05:44:24;97413.59;;;3.07;100.00
17635;BME280;8936;49.010;12.120;2023-02-26T05:46:50;97424.41;;;3.05;100.00
17635;BME280;8936;49.010;12.120;2023-02-26T05:49:17;97421.94;;;2.81;100.00
17635;BME280;8936;49.010;12.120;2023-02-26T05:51:43;97421.19;;;3.50;100.00
17635;BME280;8936;49.010;12.120;2023-02-26T05:54:09;97426.78;;;2.95;100.00
17635;BME280;8936;49.010;12.120;2023-02-26T05:56:36;97433.88;;;2.53;100.00
17635;BME280;8936;49.010;12.120;2023-02-26T05:59:03;97435.22;;;3.62;100.00
17635;BME280;8936;49.010;12.120;2023-02-26T06:01:30;97438.88;;;3.84;100.00
17635;BME280;8936;49.010;12.120;2023-02-26T06:03:56;97435.56;;;3.42;100.00
17635;BME280;8936;49.010;12.120;2023-02-26T06:06:22;97445.09;;;3.55;100.00
17635;BME280;8936;49.010;12.120;2023-02-26T06:08:50;97449.69;;;3.71;100.00
17635;BME280;8936;49.010;12.120;2023-02-26T06:11:17;97453.00;;;3.78;100.00
17635;BME280;8936;49.010;12.120;2023-02-26T06:13:43;97467.13;;;3.49;100.00
17635;BME280;8936;49.010;12.120;2023-02-26T06:16:11;97473.31;;;3.43;100.00
17635;BME280;8936;49.010;12.120;2023-02-26T06:18:37;97469.66;;;3.78;100.00
17635;BME280;8936;49.010;12.120;2023-02-26T06:21:04;97474.69;;;2.92;100.00
17635;BME280;8936;49.010;12.120;2023-02-26T06:23:30;97483.53;;;2.38;100.00
17635;BME280;8936;49.010;12.120;2023-02-26T06:25:57;97480.97;;;2.32;100.00
17635;BME280;8936;49.010;12.120;2023-02-26T06:28:23;97494.16;;;2.32;100.00
17635;BME280;8936;49.010;12.120;2023-02-26T06:30:50;97491.28;;;1.54;100.00
17635;BME280;8936;49.010;12.120;2023-02-26T06:33:19;97500.19;;;1.53;100.00
17635;BME280;8936;49.010;12.120;2023-02-26T06:35:47;97501.94;;;1.84;100.00
17635;BME280;8936;49.010;12.120;2023-02-26T06:38:14;97501.91;;;2.08;100.00
17635;BME280;8936;49.010;12.120;2023-02-26T06:40:40;97499.81;;;1.92;100.00
17635;BME280;8936;49.010;12.120;2023-02-26T06:43:07;97503.91;;;2.61;100.00
17635;BME280;8936;49.010;12.120;2023-02-26T06:45:33;97517.72;;;3.04;100.00
17635;BME280;8936;49.010;12.120;2023-02-26T06:48:00;97516.47;;;3.71;100.00
17635;BME280;8936;49.010;12.120;2023-02-26T06:50:28;97526.31;;;2.70;100.00
17635;BME280;8936;49.010;12.120;2023-02-26T06:52:54;97528.66;;;2.42;100.00
17635;BME280;8936;49.010;12.120;2023-02-26T06:55:20;97518.44;;;3.00;100.00
17635;BME280;8936;49.010;12.120;2023-02-26T06:57:50;97532.44;;;2.82;100.00
17635;BME280;8936;49.010;12.120;2023-02-26T07:00:17;97539.06;;;2.00;100.00
17635;BME280;8936;49.010;12.120;2023-02-26T07:02:43;97536.16;;;2.27;100.00
17635;BME280;8936;49.010;12.120;2023-02-26T07:05:10;97547.72;;;2.62;100.00
17635;BME280;8936;49.010;12.120;2023-02-26T07:07:37;97543.97;;;3.29;100.00
17635;BME280;8936;49.010;12.120;2023-02-26T07:10:04;97534.66;;;3.91;100.00
17635;BME280;8936;49.010;12.120;2023-02-26T07:12:31;97552.69;;;3.83;100.00
17635;BME280;8936;49.010;12.120;2023-02-26T07:14:57;97550.72;;;3.78;100.00
17635;BME280;8936;49.010;12.120;2023-02-26T07:17:23;97554.66;;;4.10;100.00
17635;BME280;8936;49.010;12.120;2023-02-26T07:19:50;97559.44;;;4.36;100.00
17635;BME280;8936;49.010;12.120;2023-02-26T07:22:18;97561.16;;;4.54;100.00
17635;BME280;8936;49.010;12.120;2023-02-26T07:24:45;97561.84;;;4.50;100.00
17635;BME280;8936;49.010;12.120;2023-02-26T07:27:12;97571.63;;;4.61;100.00
17635;BME280;8936;49.010;12.120;2023-02-26T07:29:38;97576.56;;;3.88;100.00
17635;BME280;8936;49.010;12.120;2023-02-26T07:32:04;97585.34;;;3.17;100.00
17635;BME280;8936;49.010;12.120;2023-02-26T07:34:31;97592.72;;;2.24;100.00
17635;BME280;8936;49.010;12.120;2023-02-26T07:36:58;97591.19;;;2.16;100.00
17635;BME280;8936;49.010;12.120;2023-02-26T07:39:24;97585.19;;;2.28;100.00
17635;BME280;8936;49.010;12.120;2023-02-26T07:41:52;97592.16;;;2.40;100.00
17635;BME280;8936;49.010;12.120;2023-02-26T07:44:19;97599.16;;;2.28;100.00
17635;BME280;8936;49.010;12.120;2023-02-26T07:46:45;97596.59;;;2.22;100.00
17635;BME280;8936;49.010;12.120;2023-02-26T07:49:11;97597.09;;;2.12;100.00
17635;BME280;8936;49.010;12.120;2023-02-26T07:51:38;97608.78;;;2.77;100.00
17635;BME280;8936;49.010;12.120;2023-02-26T07:54:05;97605.03;;;2.30;100.00
17635;BME280;8936;49.010;12.120;2023-02-26T07:56:31;97617.28;;;2.18;100.00
17635;BME280;8936;49.010;12.120;2023-02-26T07:58:59;97617.16;;;1.88;100.00
17635;BME280;8936;49.010;12.120;2023-02-26T08:01:25;97617.75;;;1.90;100.00
17635;BME280;8936;49.010;12.120;2023-02-26T08:03:51;97622.19;;;1.65;100.00
17635;BME280;8936;49.010;12.120;2023-02-26T08:06:18;97620.25;;;1.16;100.00
17635;BME280;8936;49.010;12.120;2023-02-26T08:08:44;97625.22;;;1.62;100.00
17635;BME280;8936;49.010;12.120;2023-02-26T08:11:10;97627.38;;;2.46;100.00
17635;BME280;8936;49.010;12.120;2023-02-26T08:13:37;97631.38;;;2.05;100.00
17635;BME280;8936;49.010;12.120;2023-02-26T08:16:05;97635.75;;;1.62;100.00
17635;BME280;8936;49.010;12.120;2023-02-26T08:18:31;97641.00;;;1.93;100.00
17635;BME280;8936;49.010;12.120;2023-02-26T08:20:57;97638.84;;;2.33;100.00
17635;BME280;8936;49.010;12.120;2023-02-26T08:23:24;97647.38;;;2.71;100.00
17635;BME280;8936;49.010;12.120;2023-02-26T08:25:50;97651.47;;;2.67;100.00
17635;BME280;8936;49.010;12.120;2023-02-26T08:28:24;97651.00;;;3.25;100.00
17635;BME280;8936;49.010;12.120;2023-02-26T08:30:51;97657.72;;;3.39;100.00
17635;BME280;8936;49.010;12.120;2023-02-26T08:33:19;97662.38;;;3.07;100.00
17635;BME280;8936;49.010;12.120;2023-02-26T08:35:45;97660.25;;;2.61;100.00
17635;BME280;8936;49.010;12.120;2023-02-26T08:38:11;97661.66;;;3.00;100.00
17635;BME280;8936;49.010;12.120;2023-02-26T08:40:38;97672.19;;;2.82;100.00
17635;BME280;8936;49.010;12.120;2023-02-26T08:43:04;97673.81;;;2.83;100.00
17635;BME280;8936;49.010;12.120;2023-02-26T08:45:30;97674.88;;;2.14;100.00
17635;BME280;8936;49.010;12.120;2023-02-26T08:47:57;97674.47;;;2.36;100.00
17635;BME280;8936;49.010;12.120;2023-02-26T08:50:25;97687.91;;;1.78;100.00
17635;BME280;8936;49.010;12.120;2023-02-26T08:52:51;97680.81;;;2.10;100.00
17635;BME280;8936;49.010;12.120;2023-02-26T08:55:18;97687.31;;;3.11;100.00
17635;BME280;8936;49.010;12.120;2023-02-26T08:57:44;97683.88;;;3.59;100.00
17635;BME280;8936;49.010;12.120;2023-02-26T09:00:11;97699.81;;;3.16;100.00
17635;BME280;8936;49.010;12.120;2023-02-26T09:02:40;97697.69;;;2.70;100.00
17635;BME280;8936;49.010;12.120;2023-02-26T09:05:07;97704.97;;;2.00;100.00
17635;BME280;8936;49.010;12.120;2023-02-26T09:07:35;97697.75;;;2.82;100.00
17635;BME280;8936;49.010;12.120;2023-02-26T09:10:01;97707.22;;;2.71;100.00
17635;BME280;8936;49.010;12.120;2023-02-26T09:12:28;97704.34;;;2.72;100.00
17635;BME280;8936;49.010;12.120;2023-02-26T09:14:54;97720.47;;;2.83;100.00
17635;BME280;8936;49.010;12.120;2023-02-26T09:17:23;97710.44;;;2.73;100.00
17635;BME280;8936;49.010;12.120;2023-02-26T09:19:49;97710.25;;;2.50;100.00
17635;BME280;8936;49.010;12.120;2023-02-26T09:22:15;97714.34;;;3.07;100.00
17635;BME280;8936;49.010;12.120;2023-02-26T09:24:43;97725.22;;;3.65;100.00
17635;BME280;8936;49.010;12.120;2023-02-26T09:27:10;97720.34;;;3.32;100.00
17635;BME280;8936;49.010;12.120;2023-02-26T09:29:36;97716.47;;;3.16;100.00
17635;BME280;8936;49.010;12.120;2023-02-26T09:32:03;97728.47;;;3.49;100.00
17635;BME280;8936;49.010;12.120;2023-02-26T09:34:37;97731.97;;;3.61;100.00
17635;BME280;8936;49.010;12.120;2023-02-26T09:37:04;97740.03;;;3.66;100.00
17635;BME280;8936;49.010;12.120;2023-02-26T09:39:31;97734.78;;;2.75;100.00
17635;BME280;8936;49.010;12.120;2023-02-26T09:42:00;97739.03;;;2.94;100.00
17635;BME280;8936;49.010;12.120;2023-02-26T09:44:32;97742.63;;;3.36;100.00
17635;BME280;8936;49.010;12.120;2023-02-26T09:47:01;97743.41;;;2.82;100.00
17635;BME280;8936;49.010;12.120;2023-02-26T09:49:36;97753.72;;;3.26;100.00
17635;BME280;8936;49.010;12.120;2023-02-26T09:52:10;97760.28;;;2.81;100.00
17635;BME280;8936;49.010;12.120;2023-02-26T09:54:40;97762.06;;;3.23;100.00
17635;BME280;8936;49.010;12.120;2023-02-26T09:57:10;97770.38;;;2.84;100.00
17635;BME280;8936;49.010;12.120;2023-02-26T09:59:40;97763.75;;;3.00;100.00
17635;BME280;8936;49.010;12.120;2023-02-26T10:02:11;97769.69;;;2.70;100.00
17635;BME280;8936;49.010;12.120;2023-02-26T10:04:44;97783.38;;;3.22;100.00
17635;BME280;8936;49.010;12.120;2023-02-26T10:07:15;97772.97;;;2.66;100.00
17635;BME280;8936;49.010;12.120;2023-02-26T10:09:57;97778.84;;;2.68;100.00
17635;BME280;8936;49.010;12.120;2023-02-26T10:12:27;97782.75;;;2.59;100.00
17635;BME280;8936;49.010;12.120;2023-02-26T10:14:56;97772.84;;;2.79;100.00
17635;BME280;8936;49.010;12.120;2023-02-26T10:17:25;97780.72;;;3.04;100.00
17635;BME280;8936;49.010;12.120;2023-02-26T10:19:54;97799.50;;;3.14;100.00
17635;BME280;8936;49.010;12.120;2023-02-26T10:22:23;97795.41;;;3.18;100.00
17635;BME280;8936;49.010;12.120;2023-02-26T10:24:53;97800.19;;;3.09;100.00
17635;BME280;8936;49.010;12.120;2023-02-26T10:27:23;97797.91;;;2.88;100.00
17635;BME280;8936;49.010;12.120;2023-02-26T10:29:55;97803.81;;;2.65;100.00
17635;BME280;8936;49.010;12.120;2023-02-26T10:32:24;97813.00;;;2.81;100.00
17635;BME280;8936;49.010;12.120;2023-02-26T10:34:51;97808.13;;;2.85;100.00
17635;BME280;8936;49.010;12.120;2023-02-26T10:37:21;97805.63;;;2.90;100.00
17635;BME280;8936;49.010;12.120;2023-02-26T10:39:49;97808.38;;;3.19;100.00
17635;BME280;8936;49.010;12.120;2023-02-26T10:42:17;97815.19;;;3.09;100.00
17635;BME280;8936;49.010;12.120;2023-02-26T10:44:48;97817.34;;;3.18;100.00
17635;BME280;8936;49.010;12.120;2023-02-26T10:47:18;97812.50;;;3.34;100.00
17635;BME280;8936;49.010;12.120;2023-02-26T10:49:51;97816.03;;;3.46;100.00
17635;BME280;8936;49.010;12.120;2023-02-26T10:52:20;97815.72;;;3.36;100.00
17635;BME280;8936;49.010;12.120;2023-02-26T10:54:49;97817.28;;;3.43;100.00
17635;BME280;8936;49.010;12.120;2023-02-26T10:57:20;97821.59;;;3.38;100.00
17635;BME280;8936;49.010;12.120;2023-02-26T10:59:48;97806.13;;;3.59;98.77
17635;BME280;8936;49.010;12.120;2023-02-26T11:02:25;97807.81;;;3.54;93.67
17635;BME280;8936;49.010;12.120;2023-02-26T11:04:54;97808.69;;;3.66;95.67
17635;BME280;8936;49.010;12.120;2023-02-26T11:07:21;97816.28;;;3.19;94.85
17635;BME280;8936;49.010;12.120;2023-02-26T11:09:47;97819.03;;;3.67;98.93
17635;BME280;8936;49.010;12.120;2023-02-26T11:12:14;97815.66;;;3.60;94.98
17635;BME280;8936;49.010;12.120;2023-02-26T11:14:42;97814.53;;;3.32;92.15
17635;BME280;8936;49.010;12.120;2023-02-26T11:17:09;97817.13;;;2.95;90.21
17635;BME280;8936;49.010;12.120;2023-02-26T11:19:39;97829.63;;;3.06;91.12
17635;BME280;8936;49.010;12.120;2023-02-26T11:22:06;97824.38;;;3.24;89.57
17635;BME280;8936;49.010;12.120;2023-02-26T11:24:34;97822.25;;;3.15;89.20
17635;BME280;8936;49.010;12.120;2023-02-26T11:27:02;97818.78;;;3.14;88.69
17635;BME280;8936;49.010;12.120;2023-02-26T11:29:32;97809.06;;;3.33;89.86
17635;BME280;8936;49.010;12.120;2023-02-26T11:32:00;97803.97;;;3.86;89.96
17635;BME280;8936;49.010;12.120;2023-02-26T11:34:26;97800.38;;;3.62;89.48
17635;BME280;8936;49.010;12.120;2023-02-26T11:36:56;97806.66;;;3.98;91.36
17635;BME280;8936;49.010;12.120;2023-02-26T11:39:24;97795.41;;;3.72;87.53
17635;BME280;8936;49.010;12.120;2023-02-26T11:41:51;97797.66;;;3.69;86.84
17635;BME280;8936;49.010;12.120;2023-02-26T11:44:19;97791.59;;;3.87;89.13
17635;BME280;8936;49.010;12.120;2023-02-26T11:46:48;97795.56;;;3.77;90.54
17635;BME280;8936;49.010;12.120;2023-02-26T11:49:16;97790.34;;;3.71;95.34
17635;BME280;8936;49.010;12.120;2023-02-26T11:51:44;97786.59;;;3.60;95.47
17635;BME280;8936;49.010;12.120;2023-02-26T11:54:22;97784.72;;;3.31;97.28
17635;BME280;8936;49.010;12.120;2023-02-26T11:56:48;97791.47;;;4.23;98.31
17635;BME280;8936;49.010;12.120;2023-02-26T11:59:16;97792.78;;;4.44;93.78
17635;BME280;8936;49.010;12.120;2023-02-26T12:01:43;97794.66;;;4.13;92.80
17635;BME280;8936;49.010;12.120;2023-02-26T12:04:10;97800.81;;;3.96;94.17
17635;BME280;8936;49.010;12.120;2023-02-26T12:06:37;97793.88;;;3.47;96.18
17635;BME280;8936;49.010;12.120;2023-02-26T12:09:04;97782.59;;;3.40;100.00
17635;BME280;8936;49.010;12.120;2023-02-26T12:14:25;97782.19;;;3.00;100.00
17635;BME280;8936;49.010;12.120;2023-02-26T12:17:01;97781.81;;;3.69;100.00
17635;BME280;8936;49.010;12.120;2023-02-26T12:19:35;97771.69;;;3.84;97.82
17635;BME280;8936;49.010;12.120;2023-02-26T12:27:35;97763.94;;;3.16;95.96
17635;BME280;8936;49.010;12.120;2023-02-26T12:30:12;97763.69;;;3.06;97.52
17635;BME280;8936;49.010;12.120;2023-02-26T12:32:48;97761.50;;;3.99;97.78
17635;BME280;8936;49.010;12.120;2023-02-26T12:35:29;97766.69;;;4.24;95.90
17635;BME280;8936;49.010;12.120;2023-02-26T12:38:01;97763.09;;;3.89;93.96
17635;BME280;8936;49.010;12.120;2023-02-26T12:40:50;97762.03;;;4.08;95.41
17635;BME280;8936;49.010;12.120;2023-02-26T12:43:24;97770.59;;;4.03;95.67
17635;BME280;8936;49.010;12.120;2023-02-26T12:45:55;97772.16;;;4.64;94.55
17635;BME280;8936;49.010;12.120;2023-02-26T12:48:33;97774.81;;;4.22;92.10
17635;BME280;8936;49.010;12.120;2023-02-26T12:51:06;97786.09;;;3.70;89.17
17635;BME280;8936;49.010;12.120;2023-02-26T12:53:40;97778.94;;;3.59;90.48
17635;BME280;8936;49.010;12.120;2023-02-26T12:56:27;97771.06;;;4.42;92.22
17635;BME280;8936;49.010;12.120;2023-02-26T12:59:11;97781.22;;;4.56;90.66
17635;BME280;8936;49.010;12.120;2023-02-26T13:02:01;97776.66;;;3.92;89.13
17635;BME280;8936;49.010;12.120;2023-02-26T13:07:20;97778.13;;;4.18;90.66
17635;BME280;8936;49.010;12.120;2023-02-26T13:09:51;97795.59;;;3.89;92.43
17635;BME280;8936;49.010;12.120;2023-02-26T13:12:25;97808.16;;;4.23;93.46
17635;BME280;8936;49.010;12.120;2023-02-26T13:14:55;97808.69;;;4.14;95.54
17635;BME280;8936;49.010;12.120;2023-02-26T13:17:28;97806.47;;;3.63;100.00
17635;BME280;8936;49.010;12.120;2023-02-26T13:19:57;97809.13;;;3.45;100.00